Time;durP1;ratioP1;P1;durP2;ratioP2;P2;SDS_P1;SDS_P2;PMS_P1;PMS_P2;Temp;Humidity;BMP_temperature;BMP_pressure;BME280_temperature;BME280_humidity;BME280_pressure;Samples;Min_cycle;Max_cycle;Signal;HPM_P1;HPM_P2
2021/08/05 02:58:15;;;;;;;;;;;;;;;;;;;;;
2021/08/05 03:01:57;;;;;;;;;;;;;;;;;;;;;
2021/08/05 03:57:57;;;;;;;1032.67;984.87;;;15.20;99.90;;;;;;5925319;24;20527;-81
2021/08/05 04:00:27;;;;;;;1024.47;976.40;;;15.30;99.90;;;;;;5965435;23;20422;-86
2021/08/05 04:03:02;;;;;;;1040.83;992.47;;;15.30;99.90;;;;;;6018758;23;20505;-85
2021/08/05 04:05:33;;;;;;;1038.47;990.00;;;15.30;99.90;;;;;;6018166;23;20502;-86
2021/08/05 04:07:59;;;;;;;1042.87;994.70;;;15.30;99.90;;;;;;6031172;23;20951;-77
2021/08/05 04:10:26;;;;;;;1069.00;999.90;;;15.30;99.90;;;;;;6093723;23;20403;-82
2021/08/05 04:12:53;;;;;;;1077.23;999.90;;;15.40;99.90;;;;;;6169569;23;20953;-77
2021/08/05 04:15:21;;;;;;;1080.70;999.90;;;15.30;99.90;;;;;;6226629;23;20435;-77
2021/08/05 04:17:48;;;;;;;1054.57;999.90;;;15.30;99.90;;;;;;6216536;23;20400;-79
2021/08/05 04:20:17;;;;;;;1071.27;999.90;;;15.30;99.90;;;;;;6216406;23;21013;-78
2021/08/05 04:22:49;;;;;;;1077.43;999.90;;;15.30;99.90;;;;;;6215754;23;20923;-83
2021/08/05 04:25:23;;;;;;;1071.80;999.90;;;15.30;99.90;;;;;;6214988;23;20454;-85
2021/08/05 04:27:53;;;;;;;1115.07;999.90;;;15.30;99.90;;;;;;6216409;23;20396;-84
2021/08/05 04:30:25;;;;;;;1096.60;999.90;;;15.30;99.90;;;;;;6216307;23;20878;-82
2021/08/05 04:32:53;;;;;;;1088.90;999.90;;;15.30;99.90;;;;;;6225871;23;20416;-83
2021/08/05 04:35:20;;;;;;;1081.03;999.90;;;15.30;99.90;;;;;;6216134;23;20435;-83
2021/08/05 04:37:53;;;;;;;1061.67;999.90;;;15.40;99.90;;;;;;6216293;23;20400;-83
2021/08/05 04:40:28;;;;;;;1054.40;999.90;;;15.30;99.90;;;;;;6225048;23;20491;-83
2021/08/05 04:42:56;;;;;;;1040.83;991.90;;;15.40;99.90;;;;;;6216177;23;20717;-83
2021/08/05 04:45:24;;;;;;;1037.50;987.50;;;15.40;99.90;;;;;;6216197;23;20400;-81
2021/08/05 04:47:57;;;;;;;1041.00;991.37;;;15.40;99.90;;;;;;6217257;23;20411;-82
2021/08/05 04:50:25;;;;;;;1017.40;970.47;;;15.40;99.90;;;;;;6225861;23;20412;-80
2021/08/05 04:52:52;;;;;;;992.00;946.00;;;15.50;99.90;;;;;;6225810;23;20483;-80
2021/08/05 04:55:19;;;;;;;987.00;941.37;;;15.50;99.90;;;;;;6214228;23;20938;-80
2021/08/05 04:57:50;;;;;;;996.87;949.67;;;15.50;99.90;;;;;;6225694;23;20427;-81
2021/08/05 05:00:22;;;;;;;1016.73;968.13;;;15.60;99.90;;;;;;6225862;23;20494;-80
2021/08/05 05:02:50;;;;;;;1044.77;997.60;;;15.70;99.90;;;;;;6216111;23;20392;-80
2021/08/05 05:05:17;;;;;;;1022.07;975.67;;;15.70;99.90;;;;;;6226274;23;20405;-80
2021/08/05 05:07:44;;;;;;;1029.90;983.70;;;15.70;99.90;;;;;;6225610;23;20982;-80
2021/08/05 05:10:12;;;;;;;1006.43;960.93;;;15.70;99.90;;;;;;6214308;23;20400;-80
2021/08/05 05:12:39;;;;;;;972.47;931.10;;;15.80;99.90;;;;;;6139133;23;20415;-80
2021/08/05 05:15:07;;;;;;;942.77;903.83;;;15.90;99.90;;;;;;6215857;23;20432;-80
2021/08/05 05:17:34;;;;;;;886.23;851.70;;;16.00;99.90;;;;;;6215403;23;20407;-81
2021/08/05 05:20:02;;;;;;;964.57;926.57;;;16.10;99.90;;;;;;6215943;23;20436;-80
2021/08/05 05:22:29;;;;;;;909.30;874.77;;;16.20;99.90;;;;;;6215294;23;20962;-79
2021/08/05 05:24:56;;;;;;;777.17;748.43;;;16.30;99.90;;;;;;6214251;23;20443;-80
2021/08/05 05:27:23;;;;;;;829.70;799.10;;;16.40;99.90;;;;;;6215939;23;20405;-79
2021/08/05 05:29:50;;;;;;;745.73;718.13;;;16.60;99.90;;;;;;6215945;23;20801;-78
2021/08/05 05:32:17;;;;;;;795.07;765.67;;;16.70;99.90;;;;;;6215853;23;20416;-78
2021/08/05 05:34:44;;;;;;;472.20;453.20;;;16.90;99.90;;;;;;6215704;23;20515;-78
2021/08/05 05:40:33;;;;;;;76.53;65.70;;;17.60;95.40;;;;;;6075339;23;20777;-85
2021/08/05 05:50:50;;;;;;;;;;;;;;;;;;;;;
2021/08/05 05:53:27;;;;;;;;;;;;;;;;;;;;;
2021/08/05 05:56:12;;;;;;;69.23;35.67;;;18.10;75.40;;;;;;6030212;23;20442;-83
2021/08/05 05:59:18;;;;;;;;;;;;;;;;;;;;;
2021/08/05 06:02:05;;;;;;;69.90;32.90;;;18.20;76.20;;;;;;5948743;23;20424;-83
2021/08/05 06:08:59;;;;;;;;;;;;;;;;;;;;;
2021/08/05 08:35:11;;;;;;;54.20;22.40;;;22.60;26.60;;;;;;6186289;23;20468;-82
2021/08/05 08:37:44;;;;;;;68.20;23.50;;;23.30;23.80;;;;;;6215834;23;20883;-82
2021/08/05 08:40:13;;;;;;;58.10;23.77;;;23.70;22.50;;;;;;6224343;23;20431;-81
2021/08/05 08:42:41;;;;;;;62.17;25.43;;;24.20;22.70;;;;;;6226102;23;20423;-80
2021/08/05 08:45:16;;;;;;;62.40;26.00;;;24.50;20.50;;;;;;6216161;23;20774;-81
2021/08/05 08:47:47;;;;;;;59.97;24.20;;;24.40;20.40;;;;;;6215866;23;20883;-81
2021/08/05 08:50:25;;;;;;;62.00;25.43;;;24.30;18.20;;;;;;6216228;23;20404;-80
2021/08/05 08:52:55;;;;;;;57.30;23.10;;;24.30;20.30;;;;;;6216186;23;20461;-80
2021/08/05 08:55:24;;;;;;;61.13;24.17;;;24.70;18.80;;;;;;6214614;23;20471;-81
2021/08/05 08:57:54;;;;;;;61.30;25.30;;;24.90;18.10;;;;;;6216172;23;20407;-81
2021/08/05 09:00:54;;;;;;;;;;;;;;;;;;;;;
2021/08/05 09:03:45;;;;;;;58.67;25.40;;;24.60;17.50;;;;;;6215190;23;20404;-81
2021/08/05 09:06:21;;;;;;;58.30;23.23;;;24.70;16.90;;;;;;6225879;23;20419;-83
2021/08/05 09:08:51;;;;;;;57.70;22.80;;;24.30;18.70;;;;;;6216086;23;20410;-82
2021/08/05 09:11:23;;;;;;;54.17;20.63;;;24.60;16.90;;;;;;6214031;23;20487;-82
2021/08/05 09:14:12;;;;;;;55.47;20.97;;;24.20;15.60;;;;;;6215903;23;20742;-82
2021/08/05 09:17:10;;;;;;;52.50;20.40;;;24.30;18.30;;;;;;6216918;23;20442;-82
2021/08/05 09:19:42;;;;;;;55.27;22.43;;;24.70;15.60;;;;;;6224526;23;20511;-82
2021/08/05 09:26:03;;;;;;;58.27;21.67;;;24.80;15.60;;;;;;6067591;23;20410;-82
2021/08/05 09:45:40;;;;;;;59.27;22.77;;;28.60;2.20;;;;;;5786038;24;20418;-85
2021/08/05 09:48:56;;;;;;;;;;;;;;;;;;;;;
2021/08/05 09:51:23;;;;;;;61.67;20.80;;;28.70;1.00;;;;;;6013053;23;20409;-82
2021/08/05 09:54:04;;;;;;;63.10;18.80;;;28.60;2.60;;;;;;6060491;23;20416;-81
2021/08/05 09:56:32;;;;;;;64.70;21.57;;;28.40;1.00;;;;;;6073395;23;20436;-81
2021/08/05 09:59:08;;;;;;;63.83;23.77;;;28.50;1.00;;;;;;6127694;23;20419;-81
2021/08/05 10:01:36;;;;;;;59.00;18.50;;;28.60;1.00;;;;;;6225520;23;20763;-84
2021/08/05 10:04:38;;;;;;;60.67;19.80;;;29.00;1.00;;;;;;6225730;23;20511;-82
2021/08/05 10:07:07;;;;;;;59.13;17.63;;;28.70;1.00;;;;;;6215568;23;20428;-81
2021/08/05 10:52:50;;;;;;;45.40;7.37;;;28.00;1.00;;;;;;5741640;24;20161;-77
2021/08/05 10:55:29;;;;;;;42.57;6.30;;;28.20;1.00;;;;;;5978634;24;20186;-77
2021/08/05 10:58:17;;;;;;;47.83;9.13;;;28.40;1.00;;;;;;5980134;24;20403;-77
2021/08/05 11:01:03;;;;;;;45.30;7.57;;;27.90;1.00;;;;;;6096744;23;20498;-77
2021/08/05 11:03:44;;;;;;;42.43;6.10;;;27.90;1.00;;;;;;6132915;23;20514;-77
2021/08/05 11:12:40;;;;;;;45.13;6.20;;;29.50;1.00;;;;;;6206724;23;20457;-82
2021/08/05 11:15:39;;;;;;;47.47;6.38;;;30.60;1.00;;;;;;6215820;23;20524;-82
2021/08/05 11:18:25;;;;;;;45.67;6.93;;;31.20;1.00;;;;;;6203325;23;20176;-81
2021/08/05 11:21:38;;;;;;;48.83;6.63;;;31.00;1.00;;;;;;6226807;23;20408;-81
2021/08/05 11:24:05;;;;;;;48.10;6.50;;;30.80;1.00;;;;;;6217114;23;20724;-81
2021/08/05 11:26:32;;;;;;;47.60;7.07;;;30.70;1.00;;;;;;6215568;23;20716;-82
2021/08/05 11:29:00;;;;;;;48.40;6.10;;;30.80;1.00;;;;;;6217048;23;20887;-81
2021/08/05 11:31:38;;;;;;;48.10;5.70;;;29.80;1.00;;;;;;6216953;23;20487;-81
2021/08/05 11:34:12;;;;;;;46.57;5.90;;;29.90;1.00;;;;;;6216387;23;20402;-81
2021/08/05 11:36:46;;;;;;;46.80;5.50;;;31.00;1.00;;;;;;6216355;23;20474;-81
2021/08/05 11:39:27;;;;;;;47.60;6.83;;;31.30;1.00;;;;;;6216505;23;20491;-81
2021/08/05 11:42:15;;;;;;;48.27;5.93;;;32.40;1.00;;;;;;6225297;23;20483;-81
2021/08/05 11:44:46;;;;;;;49.93;5.50;;;32.00;1.00;;;;;;6217518;23;20400;-83
2021/08/05 11:47:43;;;;;;;50.90;7.00;;;32.00;1.00;;;;;;6216380;23;20947;-81
2021/08/05 11:50:18;;;;;;;51.90;7.00;;;32.10;1.00;;;;;;6206537;23;20412;-82
2021/08/05 11:52:46;;;;;;;50.30;6.57;;;30.80;1.00;;;;;;6216453;23;20473;-85
2021/08/05 11:55:15;;;;;;;50.43;7.50;;;29.60;1.00;;;;;;6215085;23;20420;-85
2021/08/05 11:57:44;;;;;;;50.80;8.20;;;29.10;1.00;;;;;;6226689;23;20431;-84
2021/08/05 12:00:17;;;;;;;50.77;7.40;;;28.10;1.00;;;;;;6226754;23;20407;-86
2021/08/05 12:02:48;;;;;;;45.67;5.97;;;29.00;1.00;;;;;;6216585;23;20495;-84
2021/08/05 12:05:16;;;;;;;45.53;6.43;;;30.40;1.00;;;;;;6216461;23;20726;-85
2021/08/05 12:07:49;;;;;;;44.57;6.03;;;31.70;1.00;;;;;;6216501;23;20491;-88
2021/08/05 12:10:20;;;;;;;46.43;5.80;;;31.90;1.00;;;;;;6225091;23;20410;-85
2021/08/05 12:12:52;;;;;;;47.30;5.63;;;33.30;1.00;;;;;;6215941;23;20439;-82
2021/08/05 12:15:26;;;;;;;50.33;7.27;;;32.80;1.00;;;;;;6225986;23;20412;-83
2021/08/05 12:17:55;;;;;;;50.23;6.63;;;32.20;1.00;;;;;;6226288;23;20523;-83
2021/08/05 12:20:32;;;;;;;54.43;18.17;;;32.10;1.00;;;;;;6215918;23;20400;-83
2021/08/05 12:23:04;;;;;;;52.70;9.90;;;32.30;1.00;;;;;;6226062;23;20490;-85
2021/08/05 12:25:38;;;;;;;53.53;7.57;;;31.10;1.00;;;;;;6214735;23;20405;-85
2021/08/05 12:28:08;;;;;;;49.80;6.30;;;30.50;1.00;;;;;;6216020;23;20400;-80
2021/08/05 12:30:45;;;;;;;51.30;7.30;;;31.60;1.00;;;;;;6216294;23;20461;-82
2021/08/05 12:33:15;;;;;;;49.63;7.30;;;33.60;1.00;;;;;;6216139;23;20407;-84
2021/08/05 12:35:57;;;;;;;49.90;6.90;;;34.60;1.00;;;;;;6216362;23;20424;-82
2021/08/05 12:38:24;;;;;;;54.93;10.60;;;35.30;1.00;;;;;;6216476;23;20383;-80
2021/08/05 12:40:51;;;;;;;51.43;7.20;;;34.50;1.00;;;;;;6214680;23;20400;-84
2021/08/05 12:43:19;;;;;;;53.20;8.03;;;34.00;1.00;;;;;;6216406;23;20428;-82
2021/08/05 12:45:49;;;;;;;51.67;8.30;;;33.10;1.00;;;;;;6216249;23;20436;-82
2021/08/05 12:48:16;;;;;;;52.67;8.50;;;33.10;1.00;;;;;;6216346;23;20770;-83
2021/08/05 12:57:53;;;;;;;52.80;8.40;;;34.90;1.00;;;;;;6058385;23;20511;-87
2021/08/05 13:41:54;;;;;;;5.83;2.50;;;28.20;1.00;;;;;;6139267;23;20412;-84
2021/08/05 13:44:33;;;;;;;5.47;2.13;;;29.30;1.00;;;;;;6226027;23;20506;-85
2021/08/05 14:04:12;;;;;;;7.70;2.10;;;32.60;1.00;;;;;;5764409;24;20429;-87
2021/08/05 14:07:12;;;;;;;5.40;2.23;;;32.60;1.00;;;;;;6008934;23;20474;-87
2021/08/05 14:10:25;;;;;;;;;;;;;;;;;;;;;
2021/08/05 14:12:53;;;;;;;4.10;1.97;;;33.40;1.00;;;;;;6051854;23;20922;-81
2021/08/05 14:15:20;;;;;;;6.63;2.60;;;33.80;1.00;;;;;;6094283;23;20503;-78
2021/08/05 14:17:47;;;;;;;6.17;2.87;;;34.50;1.00;;;;;;6170066;23;20454;-77
2021/08/05 14:20:16;;;;;;;4.77;2.07;;;34.20;1.00;;;;;;6215745;23;20435;-77
2021/08/05 14:22:43;;;;;;;6.27;1.93;;;33.40;1.00;;;;;;6225386;23;20418;-78
2021/08/05 14:25:12;;;;;;;4.10;1.40;;;31.80;1.00;;;;;;6214073;23;20426;-78
2021/08/05 14:27:39;;;;;;;4.40;1.67;;;30.80;1.00;;;;;;6215736;23;20427;-77
2021/08/05 14:30:08;;;;;;;6.87;2.17;;;30.30;1.00;;;;;;6215274;23;20979;-77
2021/08/05 14:32:36;;;;;;;4.30;2.00;;;29.70;1.00;;;;;;6215289;23;20407;-80
2021/08/05 14:35:05;;;;;;;5.13;1.70;;;31.20;1.00;;;;;;6215586;23;20492;-81
2021/08/05 14:37:33;;;;;;;4.63;1.60;;;30.90;1.00;;;;;;6214925;23;20530;-81
2021/08/05 14:40:00;;;;;;;5.30;1.70;;;30.60;1.00;;;;;;6214248;23;20635;-81
2021/08/05 14:42:52;;;;;;;4.80;2.10;;;30.10;1.00;;;;;;6215179;23;20400;-81
2021/08/05 14:45:19;;;;;;;5.00;1.97;;;29.10;1.00;;;;;;6225498;23;20478;-81
2021/08/05 14:47:46;;;;;;;4.47;2.10;;;28.70;1.00;;;;;;6215290;23;20451;-81
2021/08/05 14:50:13;;;;;;;4.60;1.70;;;28.80;1.00;;;;;;6227153;23;20407;-78
2021/08/05 14:52:44;;;;;;;5.23;1.80;;;28.90;1.00;;;;;;6217501;23;20400;-81
2021/08/05 14:55:11;;;;;;;5.30;2.07;;;28.90;1.00;;;;;;6215834;23;20408;-79
2021/08/05 14:57:38;;;;;;;4.23;1.90;;;28.70;1.00;;;;;;6217337;23;20438;-78
2021/08/05 15:00:06;;;;;;;4.87;1.67;;;27.60;1.00;;;;;;6217594;23;20490;-78
2021/08/05 15:02:34;;;;;;;4.60;1.70;;;27.20;1.00;;;;;;6217545;23;20406;-78
2021/08/05 15:05:01;;;;;;;4.83;2.20;;;26.90;1.00;;;;;;6217344;23;20400;-79
2021/08/05 15:07:28;;;;;;;6.23;2.10;;;27.00;1.00;;;;;;6217628;23;20426;-78
2021/08/05 15:09:56;;;;;;;4.37;1.77;;;27.10;1.00;;;;;;6215394;23;20971;-77
2021/08/05 15:12:27;;;;;;;5.23;1.73;;;27.10;1.00;;;;;;6217339;23;20406;-81
2021/08/05 15:14:54;;;;;;;5.63;1.97;;;26.80;1.00;;;;;;6217303;23;20408;-81
2021/08/05 16:42:32;;;;;;;6.70;1.77;;;28.60;1.00;;;;;;5818402;24;20428;-82
2021/08/05 16:44:58;;;;;;;4.37;1.07;;;28.60;1.00;;;;;;5882477;24;20599;-82
2021/08/05 16:47:26;;;;;;;3.97;1.50;;;28.90;1.00;;;;;;5952789;24;20415;-85
2021/08/05 16:49:53;;;;;;;4.10;1.47;;;28.90;1.00;;;;;;5953020;24;20407;-83
2021/08/05 16:52:20;;;;;;;6.93;2.73;;;29.10;1.00;;;;;;5993270;23;20765;-84
2021/08/05 16:54:46;;;;;;;3.97;1.33;;;28.90;1.00;;;;;;6035794;23;20401;-82
2021/08/05 16:57:14;;;;;;;5.00;1.80;;;29.30;1.00;;;;;;6037097;23;20492;-84
2021/08/05 16:59:42;;;;;;;5.93;1.97;;;28.80;1.00;;;;;;6036757;23;20413;-82
2021/08/05 17:02:09;;;;;;;7.57;2.17;;;29.10;1.00;;;;;;6046914;23;20462;-82
2021/08/05 17:04:36;;;;;;;5.47;1.40;;;29.20;1.00;;;;;;6037292;23;20405;-82
2021/08/05 17:07:05;;;;;;;5.07;1.53;;;29.50;1.00;;;;;;6037491;23;20402;-83
2021/08/05 17:09:32;;;;;;;4.13;1.60;;;29.50;1.00;;;;;;6037254;23;20408;-86
2021/08/05 17:11:59;;;;;;;5.60;1.87;;;29.30;1.00;;;;;;6045133;23;20405;-81
2021/08/05 17:14:26;;;;;;;3.73;1.33;;;29.50;1.00;;;;;;6046652;23;20452;-82
2021/08/05 17:16:59;;;;;;;6.57;1.83;;;29.80;1.00;;;;;;6037173;23;20973;-81
2021/08/05 17:19:32;;;;;;;4.07;1.53;;;29.30;1.00;;;;;;6046725;23;20483;-83
2021/08/05 17:22:01;;;;;;;5.40;1.60;;;29.70;1.00;;;;;;6046786;23;20440;-82
2021/08/05 17:24:28;;;;;;;3.90;1.63;;;29.80;1.00;;;;;;6075287;23;20756;-82
2021/08/05 17:26:55;;;;;;;3.90;1.47;;;30.00;1.00;;;;;;6064159;23;20463;-80
2021/08/05 17:29:22;;;;;;;3.80;1.43;;;29.90;1.00;;;;;;6174686;23;20408;-82
2021/08/05 17:31:49;;;;;;;6.30;1.60;;;30.30;1.00;;;;;;6195493;23;20398;-82
2021/08/05 17:34:17;;;;;;;4.83;1.80;;;30.40;1.00;;;;;;6186014;23;20422;-82
2021/08/05 17:36:45;;;;;;;5.80;1.30;;;30.50;1.00;;;;;;6185801;23;20822;-84
2021/08/05 17:39:13;;;;;;;4.13;1.27;;;30.90;1.00;;;;;;6185378;23;20440;-81
2021/08/05 17:41:40;;;;;;;3.90;1.60;;;31.40;1.00;;;;;;6184494;23;20865;-82
2021/08/05 17:44:07;;;;;;;4.40;1.70;;;31.50;1.00;;;;;;6185661;23;20805;-85
2021/08/05 17:46:34;;;;;;;6.17;1.47;;;30.50;1.00;;;;;;6185766;23;20468;-83
2021/08/05 17:49:01;;;;;;;4.97;1.50;;;30.00;1.00;;;;;;6195485;23;20421;-83
2021/08/05 17:51:29;;;;;;;3.60;1.30;;;28.40;1.00;;;;;;6195736;23;20460;-80
2021/08/05 17:53:56;;;;;;;7.23;1.57;;;27.70;1.00;;;;;;6185692;23;20458;-80
2021/08/05 18:10:02;;;;;;;4.43;1.77;;;24.00;6.10;;;;;;5675631;23;20492;-80
2021/08/05 18:12:28;;;;;;;7.00;2.00;;;23.70;8.60;;;;;;6006168;23;20410;-80
2021/08/05 18:14:57;;;;;;;7.40;2.03;;;23.30;10.40;;;;;;6057500;23;20413;-83
2021/08/05 18:17:24;;;;;;;6.23;2.20;;;23.10;11.50;;;;;;6063626;23;20444;-81
2021/08/05 18:19:51;;;;;;;9.07;2.57;;;22.90;12.50;;;;;;6066986;23;20483;-79
2021/08/05 18:22:18;;;;;;;5.40;1.97;;;22.60;13.90;;;;;;6184129;23;20405;-81
2021/08/05 18:24:45;;;;;;;7.50;1.97;;;22.50;14.00;;;;;;6184133;23;20401;-80
2021/08/05 18:27:13;;;;;;;4.07;1.60;;;22.20;14.70;;;;;;6185536;23;20888;-82
2021/08/05 18:29:41;;;;;;;7.27;1.97;;;22.00;15.60;;;;;;6186052;23;20440;-80
2021/08/05 18:32:08;;;;;;;7.83;2.07;;;21.80;16.20;;;;;;6185990;23;20784;-81
2021/08/05 18:34:36;;;;;;;6.33;1.80;;;21.70;16.90;;;;;;6185989;23;20407;-82
2021/08/05 18:37:05;;;;;;;5.27;2.20;;;21.50;17.10;;;;;;6185297;23;20425;-81
2021/08/05 18:39:32;;;;;;;5.10;2.07;;;21.30;18.90;;;;;;6185616;23;20436;-79
2021/08/05 18:41:59;;;;;;;5.00;2.20;;;21.20;20.10;;;;;;6184148;23;20428;-80
2021/08/05 18:44:28;;;;;;;5.43;1.83;;;21.00;20.40;;;;;;6195431;23;20499;-81
2021/08/05 18:46:55;;;;;;;5.73;1.93;;;20.80;21.30;;;;;;6185719;23;20401;-80
2021/08/05 18:49:22;;;;;;;5.57;2.13;;;20.60;22.20;;;;;;6185579;23;20424;-82
2021/08/05 18:51:49;;;;;;;10.10;2.20;;;20.50;23.70;;;;;;6184860;23;20405;-80
2021/08/05 18:54:16;;;;;;;4.90;1.63;;;20.30;24.20;;;;;;6186346;23;20440;-80
2021/08/05 18:56:43;;;;;;;4.63;2.13;;;20.20;25.20;;;;;;6185050;23;20431;-80
2021/08/05 18:59:10;;;;;;;14.53;2.20;;;19.90;25.70;;;;;;6187228;23;20397;-81
2021/08/05 19:01:38;;;;;;;7.93;2.23;;;19.80;26.90;;;;;;6186626;23;20411;-80
2021/08/05 19:04:07;;;;;;;5.70;1.80;;;19.60;26.80;;;;;;6186168;23;20436;-80
2021/08/05 19:06:34;;;;;;;4.80;2.17;;;19.50;28.40;;;;;;6187180;23;20444;-79
2021/08/05 19:09:01;;;;;;;6.37;2.13;;;19.40;29.60;;;;;;6186553;23;20447;-80
2021/08/05 19:11:27;;;;;;;4.70;2.10;;;19.30;30.80;;;;;;6194437;23;20876;-84
2021/08/05 19:13:55;;;;;;;4.23;2.10;;;19.10;31.40;;;;;;6195793;23;20487;-80
2021/08/05 19:16:22;;;;;;;4.00;1.60;;;19.10;31.70;;;;;;6196158;23;21125;-80
2021/08/05 19:18:51;;;;;;;6.13;2.30;;;18.90;31.80;;;;;;6196059;23;20451;-81
2021/08/05 19:21:18;;;;;;;4.77;2.57;;;18.90;33.20;;;;;;6196102;23;20429;-79
2021/08/05 19:23:46;;;;;;;8.83;2.10;;;18.80;34.50;;;;;;6186333;23;20440;-80
2021/08/05 19:26:13;;;;;;;5.20;2.57;;;18.60;34.80;;;;;;6184800;23;20907;-80
2021/08/05 19:28:40;;;;;;;4.83;2.10;;;18.50;38.70;;;;;;6185784;23;20446;-80
2021/08/05 19:31:07;;;;;;;4.43;2.40;;;18.30;38.60;;;;;;6186157;23;20501;-81
2021/08/05 19:33:34;;;;;;;6.33;2.27;;;18.10;41.00;;;;;;6186329;23;20484;-81
2021/08/05 19:36:02;;;;;;;8.20;3.30;;;18.10;42.60;;;;;;6194691;23;20419;-82
2021/08/05 19:38:29;;;;;;;6.50;2.90;;;17.90;43.30;;;;;;6185602;23;20966;-84
2021/08/05 19:40:56;;;;;;;11.17;3.33;;;17.80;45.50;;;;;;6194497;23;20873;-81
2021/08/05 19:43:23;;;;;;;7.00;2.83;;;17.70;46.90;;;;;;6185571;23;21036;-81
2021/08/05 19:45:50;;;;;;;4.23;2.10;;;17.50;48.70;;;;;;6186351;23;20407;-81
2021/08/05 19:48:20;;;;;;;6.60;2.70;;;17.60;51.00;;;;;;6185820;23;20706;-81
2021/08/05 19:50:46;;;;;;;8.73;2.60;;;17.60;51.00;;;;;;6186735;23;20408;-77
2021/08/05 19:53:15;;;;;;;10.63;3.00;;;17.70;51.10;;;;;;6196514;23;20979;-78
2021/08/05 19:55:42;;;;;;;6.37;2.90;;;17.90;49.20;;;;;;6185524;23;20405;-78
2021/08/05 19:58:08;;;;;;;5.77;2.93;;;18.00;48.90;;;;;;6186330;23;20447;-83
2021/08/05 20:07:21;;;;;;;4.90;3.00;;;18.10;51.40;;;;;;5869159;24;20423;-90
2021/08/05 20:13:31;;;;;;;3.87;1.90;;;18.30;51.60;;;;;;5773169;24;20429;-88
